sensor_id;sensor_type;location;lat;lon;timestamp;P1;durP1;ratioP1;P2;durP2;ratioP2
7745;SDS011;3917;42.748;23.278;2022-08-25T00:00:34;37.95;;;11.85;;
7745;SDS011;3917;42.748;23.278;2022-08-25T00:03:01;38.33;;;12.80;;
7745;SDS011;3917;42.748;23.278;2022-08-25T00:05:29;33.33;;;12.48;;
7745;SDS011;3917;42.748;23.278;2022-08-25T00:07:56;35.78;;;11.85;;
7745;SDS011;3917;42.748;23.278;2022-08-25T00:10:23;27.20;;;12.90;;
7745;SDS011;3917;42.748;23.278;2022-08-25T00:12:50;29.83;;;11.35;;
7745;SDS011;3917;42.748;23.278;2022-08-25T00:15:17;32.00;;;12.10;;
7745;SDS011;3917;42.748;23.278;2022-08-25T00:17:47;23.85;;;11.48;;
7745;SDS011;3917;42.748;23.278;2022-08-25T00:20:14;25.15;;;11.88;;
7745;SDS011;3917;42.748;23.278;2022-08-25T00:22:43;30.15;;;11.23;;
7745;SDS011;3917;42.748;23.278;2022-08-25T00:25:10;35.55;;;12.27;;
7745;SDS011;3917;42.748;23.278;2022-08-25T00:27:37;32.05;;;11.65;;
7745;SDS011;3917;42.748;23.278;2022-08-25T00:30:04;33.22;;;11.88;;
7745;SDS011;3917;42.748;23.278;2022-08-25T00:32:32;29.83;;;12.10;;
7745;SDS011;3917;42.748;23.278;2022-08-25T00:34:59;32.20;;;11.75;;
7745;SDS011;3917;42.748;23.278;2022-08-25T00:37:27;33.90;;;11.35;;
7745;SDS011;3917;42.748;23.278;2022-08-25T00:39:55;28.67;;;10.75;;
7745;SDS011;3917;42.748;23.278;2022-08-25T00:42:22;30.23;;;12.15;;
7745;SDS011;3917;42.748;23.278;2022-08-25T00:44:50;37.85;;;11.48;;
7745;SDS011;3917;42.748;23.278;2022-08-25T00:47:17;35.55;;;11.80;;
7745;SDS011;3917;42.748;23.278;2022-08-25T00:49:45;45.78;;;12.65;;
7745;SDS011;3917;42.748;23.278;2022-08-25T00:52:15;25.80;;;11.65;;
7745;SDS011;3917;42.748;23.278;2022-08-25T00:54:46;26.95;;;11.38;;
7745;SDS011;3917;42.748;23.278;2022-08-25T00:57:18;33.90;;;11.60;;
7745;SDS011;3917;42.748;23.278;2022-08-25T00:59:50;35.88;;;11.95;;
7745;SDS011;3917;42.748;23.278;2022-08-25T01:02:17;35.53;;;13.25;;
7745;SDS011;3917;42.748;23.278;2022-08-25T01:04:44;29.27;;;12.60;;
7745;SDS011;3917;42.748;23.278;2022-08-25T01:07:11;40.22;;;13.02;;
7745;SDS011;3917;42.748;23.278;2022-08-25T01:09:39;33.40;;;12.80;;
7745;SDS011;3917;42.748;23.278;2022-08-25T01:12:09;34.42;;;12.80;;
7745;SDS011;3917;42.748;23.278;2022-08-25T01:14:37;31.38;;;11.82;;
7745;SDS011;3917;42.748;23.278;2022-08-25T01:17:04;25.70;;;12.25;;
7745;SDS011;3917;42.748;23.278;2022-08-25T01:19:31;24.35;;;11.10;;
7745;SDS011;3917;42.748;23.278;2022-08-25T01:22:00;39.38;;;12.30;;
7745;SDS011;3917;42.748;23.278;2022-08-25T01:24:29;28.63;;;12.85;;
7745;SDS011;3917;42.748;23.278;2022-08-25T01:27:00;41.47;;;13.05;;
7745;SDS011;3917;42.748;23.278;2022-08-25T01:29:28;27.88;;;11.23;;
7745;SDS011;3917;42.748;23.278;2022-08-25T01:31:56;31.55;;;10.07;;
7745;SDS011;3917;42.748;23.278;2022-08-25T01:34:26;35.28;;;11.68;;
7745;SDS011;3917;42.748;23.278;2022-08-25T01:36:55;27.95;;;11.13;;
7745;SDS011;3917;42.748;23.278;2022-08-25T01:39:25;35.58;;;11.25;;
7745;SDS011;3917;42.748;23.278;2022-08-25T01:41:58;27.58;;;11.38;;
7745;SDS011;3917;42.748;23.278;2022-08-25T01:44:35;34.22;;;11.63;;
7745;SDS011;3917;42.748;23.278;2022-08-25T01:47:03;23.70;;;10.38;;
7745;SDS011;3917;42.748;23.278;2022-08-25T01:49:30;32.55;;;11.40;;
7745;SDS011;3917;42.748;23.278;2022-08-25T01:52:00;28.90;;;11.90;;
7745;SDS011;3917;42.748;23.278;2022-08-25T01:54:32;30.50;;;11.10;;
7745;SDS011;3917;42.748;23.278;2022-08-25T01:56:58;32.35;;;12.13;;
7745;SDS011;3917;42.748;23.278;2022-08-25T01:59:26;28.42;;;11.48;;
7745;SDS011;3917;42.748;23.278;2022-08-25T02:01:53;36.05;;;11.52;;
7745;SDS011;3917;42.748;23.278;2022-08-25T02:04:20;24.25;;;11.57;;
7745;SDS011;3917;42.748;23.278;2022-08-25T02:06:47;36.08;;;11.40;;
7745;SDS011;3917;42.748;23.278;2022-08-25T02:09:15;32.28;;;12.40;;
7745;SDS011;3917;42.748;23.278;2022-08-25T02:11:44;32.05;;;11.32;;
7745;SDS011;3917;42.748;23.278;2022-08-25T02:14:12;27.92;;;10.57;;
7745;SDS011;3917;42.748;23.278;2022-08-25T02:16:41;29.30;;;11.15;;
7745;SDS011;3917;42.748;23.278;2022-08-25T02:19:12;28.15;;;10.20;;
7745;SDS011;3917;42.748;23.278;2022-08-25T02:21:40;28.20;;;11.23;;
7745;SDS011;3917;42.748;23.278;2022-08-25T02:24:07;21.38;;;9.90;;
7745;SDS011;3917;42.748;23.278;2022-08-25T02:26:34;45.30;;;11.57;;
7745;SDS011;3917;42.748;23.278;2022-08-25T02:29:03;33.75;;;10.55;;
7745;SDS011;3917;42.748;23.278;2022-08-25T02:31:32;34.72;;;10.98;;
7745;SDS011;3917;42.748;23.278;2022-08-25T02:33:59;29.02;;;11.57;;
7745;SDS011;3917;42.748;23.278;2022-08-25T02:36:27;37.72;;;12.25;;
7745;SDS011;3917;42.748;23.278;2022-08-25T02:38:54;33.92;;;12.15;;
7745;SDS011;3917;42.748;23.278;2022-08-25T02:41:22;32.60;;;12.10;;
7745;SDS011;3917;42.748;23.278;2022-08-25T02:43:51;30.00;;;12.07;;
7745;SDS011;3917;42.748;23.278;2022-08-25T02:46:21;26.92;;;12.43;;
7745;SDS011;3917;42.748;23.278;2022-08-25T02:48:49;30.80;;;11.70;;
7745;SDS011;3917;42.748;23.278;2022-08-25T02:51:17;27.70;;;12.00;;
7745;SDS011;3917;42.748;23.278;2022-08-25T02:53:46;30.88;;;12.27;;
7745;SDS011;3917;42.748;23.278;2022-08-25T02:56:13;34.13;;;12.93;;
7745;SDS011;3917;42.748;23.278;2022-08-25T02:58:41;33.40;;;12.35;;
7745;SDS011;3917;42.748;23.278;2022-08-25T03:01:10;41.38;;;11.85;;
7745;SDS011;3917;42.748;23.278;2022-08-25T03:03:39;37.67;;;12.20;;
7745;SDS011;3917;42.748;23.278;2022-08-25T03:06:10;27.23;;;12.13;;
7745;SDS011;3917;42.748;23.278;2022-08-25T03:08:39;29.08;;;11.15;;
7745;SDS011;3917;42.748;23.278;2022-08-25T03:11:06;30.65;;;12.82;;
7745;SDS011;3917;42.748;23.278;2022-08-25T03:13:33;36.85;;;11.50;;
7745;SDS011;3917;42.748;23.278;2022-08-25T03:16:00;26.13;;;11.77;;
7745;SDS011;3917;42.748;23.278;2022-08-25T03:18:28;30.52;;;11.65;;
7745;SDS011;3917;42.748;23.278;2022-08-25T03:20:57;27.63;;;12.02;;
7745;SDS011;3917;42.748;23.278;2022-08-25T03:23:24;32.47;;;12.52;;
7745;SDS011;3917;42.748;23.278;2022-08-25T03:25:52;31.02;;;12.05;;
7745;SDS011;3917;42.748;23.278;2022-08-25T03:28:37;34.90;;;12.13;;
7745;SDS011;3917;42.748;23.278;2022-08-25T03:31:03;25.70;;;12.38;;
7745;SDS011;3917;42.748;23.278;2022-08-25T03:33:31;30.30;;;12.45;;
7745;SDS011;3917;42.748;23.278;2022-08-25T03:35:59;32.28;;;11.77;;
7745;SDS011;3917;42.748;23.278;2022-08-25T03:38:26;31.80;;;14.27;;
7745;SDS011;3917;42.748;23.278;2022-08-25T03:40:53;31.80;;;12.95;;
7745;SDS011;3917;42.748;23.278;2022-08-25T03:43:20;25.30;;;11.80;;
7745;SDS011;3917;42.748;23.278;2022-08-25T03:45:47;27.45;;;10.90;;
7745;SDS011;3917;42.748;23.278;2022-08-25T03:48:14;25.10;;;11.93;;
7745;SDS011;3917;42.748;23.278;2022-08-25T03:50:45;33.42;;;11.32;;
7745;SDS011;3917;42.748;23.278;2022-08-25T03:53:15;29.55;;;12.48;;
7745;SDS011;3917;42.748;23.278;2022-08-25T03:55:42;26.38;;;11.15;;
7745;SDS011;3917;42.748;23.278;2022-08-25T03:58:09;30.50;;;11.63;;
7745;SDS011;3917;42.748;23.278;2022-08-25T04:00:36;34.75;;;11.55;;
7745;SDS011;3917;42.748;23.278;2022-08-25T04:03:03;30.27;;;11.32;;
7745;SDS011;3917;42.748;23.278;2022-08-25T04:05:30;28.63;;;11.20;;
7745;SDS011;3917;42.748;23.278;2022-08-25T04:07:56;33.55;;;11.23;;
7745;SDS011;3917;42.748;23.278;2022-08-25T04:10:27;27.95;;;11.38;;
7745;SDS011;3917;42.748;23.278;2022-08-25T04:12:54;28.30;;;11.38;;
7745;SDS011;3917;42.748;23.278;2022-08-25T04:15:21;27.63;;;11.75;;
7745;SDS011;3917;42.748;23.278;2022-08-25T04:17:48;20.45;;;10.52;;
7745;SDS011;3917;42.748;23.278;2022-08-25T04:20:15;25.88;;;10.88;;
7745;SDS011;3917;42.748;23.278;2022-08-25T04:22:42;26.35;;;11.75;;
7745;SDS011;3917;42.748;23.278;2022-08-25T04:25:09;33.75;;;11.18;;
7745;SDS011;3917;42.748;23.278;2022-08-25T04:27:38;25.63;;;11.65;;
7745;SDS011;3917;42.748;23.278;2022-08-25T04:30:05;30.25;;;11.88;;
7745;SDS011;3917;42.748;23.278;2022-08-25T04:32:34;26.75;;;11.27;;
7745;SDS011;3917;42.748;23.278;2022-08-25T04:35:01;28.83;;;11.27;;
7745;SDS011;3917;42.748;23.278;2022-08-25T04:37:28;29.65;;;10.60;;
7745;SDS011;3917;42.748;23.278;2022-08-25T04:39:55;28.30;;;11.23;;
7745;SDS011;3917;42.748;23.278;2022-08-25T04:42:21;26.30;;;10.32;;
7745;SDS011;3917;42.748;23.278;2022-08-25T04:44:51;25.70;;;10.23;;
7745;SDS011;3917;42.748;23.278;2022-08-25T04:47:19;16.92;;;9.57;;
7745;SDS011;3917;42.748;23.278;2022-08-25T04:49:45;25.58;;;10.73;;
7745;SDS011;3917;42.748;23.278;2022-08-25T04:52:12;26.63;;;10.63;;
7745;SDS011;3917;42.748;23.278;2022-08-25T04:54:39;23.17;;;10.10;;
7745;SDS011;3917;42.748;23.278;2022-08-25T04:57:06;30.73;;;9.82;;
7745;SDS011;3917;42.748;23.278;2022-08-25T04:59:33;23.83;;;10.77;;
7745;SDS011;3917;42.748;23.278;2022-08-25T05:02:01;21.30;;;10.73;;
7745;SDS011;3917;42.748;23.278;2022-08-25T05:04:29;30.25;;;12.13;;
7745;SDS011;3917;42.748;23.278;2022-08-25T05:06:57;28.45;;;10.75;;
7745;SDS011;3917;42.748;23.278;2022-08-25T05:09:25;28.65;;;10.40;;
7745;SDS011;3917;42.748;23.278;2022-08-25T05:11:52;26.33;;;10.57;;
7745;SDS011;3917;42.748;23.278;2022-08-25T05:14:19;21.75;;;10.07;;
7745;SDS011;3917;42.748;23.278;2022-08-25T05:16:47;23.80;;;10.43;;
7745;SDS011;3917;42.748;23.278;2022-08-25T05:19:16;41.08;;;10.90;;
7745;SDS011;3917;42.748;23.278;2022-08-25T05:21:42;22.88;;;9.98;;
7745;SDS011;3917;42.748;23.278;2022-08-25T05:24:09;29.23;;;11.32;;
7745;SDS011;3917;42.748;23.278;2022-08-25T05:26:36;26.00;;;10.48;;
7745;SDS011;3917;42.748;23.278;2022-08-25T05:29:04;21.15;;;9.98;;
7745;SDS011;3917;42.748;23.278;2022-08-25T05:31:31;25.25;;;10.30;;
7745;SDS011;3917;42.748;23.278;2022-08-25T05:33:59;28.48;;;9.93;;
7745;SDS011;3917;42.748;23.278;2022-08-25T05:36:33;23.85;;;10.10;;
7745;SDS011;3917;42.748;23.278;2022-08-25T05:39:00;27.55;;;9.90;;
7745;SDS011;3917;42.748;23.278;2022-08-25T05:41:28;23.00;;;10.55;;
7745;SDS011;3917;42.748;23.278;2022-08-25T05:43:56;25.27;;;10.88;;
7745;SDS011;3917;42.748;23.278;2022-08-25T05:46:23;19.60;;;9.10;;
7745;SDS011;3917;42.748;23.278;2022-08-25T05:48:50;18.27;;;10.35;;
7745;SDS011;3917;42.748;23.278;2022-08-25T05:51:17;27.88;;;10.07;;
7745;SDS011;3917;42.748;23.278;2022-08-25T05:53:47;24.48;;;10.10;;
7745;SDS011;3917;42.748;23.278;2022-08-25T05:56:15;16.40;;;9.18;;
7745;SDS011;3917;42.748;23.278;2022-08-25T05:58:43;20.63;;;8.73;;
7745;SDS011;3917;42.748;23.278;2022-08-25T06:01:17;18.88;;;7.80;;
7745;SDS011;3917;42.748;23.278;2022-08-25T06:04:04;28.52;;;9.50;;
7745;SDS011;3917;42.748;23.278;2022-08-25T06:06:31;24.38;;;9.13;;
7745;SDS011;3917;42.748;23.278;2022-08-25T06:09:00;19.85;;;9.38;;
7745;SDS011;3917;42.748;23.278;2022-08-25T06:11:28;19.23;;;8.27;;
7745;SDS011;3917;42.748;23.278;2022-08-25T06:13:55;18.45;;;9.18;;
7745;SDS011;3917;42.748;23.278;2022-08-25T06:16:22;25.23;;;9.15;;
7745;SDS011;3917;42.748;23.278;2022-08-25T06:18:49;18.05;;;8.43;;
7745;SDS011;3917;42.748;23.278;2022-08-25T06:21:15;20.05;;;8.18;;
7745;SDS011;3917;42.748;23.278;2022-08-25T06:23:42;19.70;;;8.77;;
7745;SDS011;3917;42.748;23.278;2022-08-25T06:26:13;21.33;;;8.23;;
7745;SDS011;3917;42.748;23.278;2022-08-25T06:28:43;21.70;;;8.48;;
7745;SDS011;3917;42.748;23.278;2022-08-25T06:31:10;23.42;;;8.45;;
7745;SDS011;3917;42.748;23.278;2022-08-25T06:33:38;17.30;;;7.18;;
7745;SDS011;3917;42.748;23.278;2022-08-25T06:36:05;20.63;;;7.85;;
7745;SDS011;3917;42.748;23.278;2022-08-25T06:41:45;20.75;;;8.00;;
7745;SDS011;3917;42.748;23.278;2022-08-25T06:44:17;24.95;;;7.32;;
7745;SDS011;3917;42.748;23.278;2022-08-25T06:46:44;19.08;;;7.95;;
7745;SDS011;3917;42.748;23.278;2022-08-25T06:56:03;18.52;;;6.88;;
7745;SDS011;3917;42.748;23.278;2022-08-25T06:58:36;16.88;;;7.13;;
7745;SDS011;3917;42.748;23.278;2022-08-25T07:01:07;19.35;;;6.68;;
7745;SDS011;3917;42.748;23.278;2022-08-25T07:03:36;19.25;;;7.20;;
7745;SDS011;3917;42.748;23.278;2022-08-25T07:06:07;19.50;;;7.00;;
7745;SDS011;3917;42.748;23.278;2022-08-25T07:08:34;20.92;;;7.28;;
7745;SDS011;3917;42.748;23.278;2022-08-25T07:11:03;20.85;;;6.63;;
7745;SDS011;3917;42.748;23.278;2022-08-25T07:13:31;18.45;;;7.68;;
7745;SDS011;3917;42.748;23.278;2022-08-25T07:16:00;25.08;;;6.90;;
7745;SDS011;3917;42.748;23.278;2022-08-25T07:18:27;22.77;;;7.68;;
7745;SDS011;3917;42.748;23.278;2022-08-25T07:20:54;24.08;;;7.53;;
7745;SDS011;3917;42.748;23.278;2022-08-25T07:23:22;33.50;;;7.15;;
7745;SDS011;3917;42.748;23.278;2022-08-25T07:25:50;18.17;;;7.45;;
7745;SDS011;3917;42.748;23.278;2022-08-25T07:28:17;18.42;;;7.22;;
7745;SDS011;3917;42.748;23.278;2022-08-25T07:30:44;21.95;;;7.63;;
7745;SDS011;3917;42.748;23.278;2022-08-25T07:33:12;19.70;;;7.22;;
7745;SDS011;3917;42.748;23.278;2022-08-25T07:35:39;21.23;;;7.68;;
7745;SDS011;3917;42.748;23.278;2022-08-25T07:38:05;18.50;;;7.70;;
7745;SDS011;3917;42.748;23.278;2022-08-25T07:40:34;20.23;;;7.28;;
7745;SDS011;3917;42.748;23.278;2022-08-25T07:43:03;16.05;;;7.03;;
7745;SDS011;3917;42.748;23.278;2022-08-25T07:45:33;23.77;;;7.65;;
7745;SDS011;3917;42.748;23.278;2022-08-25T07:48:02;21.42;;;7.03;;
7745;SDS011;3917;42.748;23.278;2022-08-25T07:50:33;25.15;;;6.72;;
7745;SDS011;3917;42.748;23.278;2022-08-25T07:53:03;21.05;;;6.88;;
7745;SDS011;3917;42.748;23.278;2022-08-25T07:55:30;18.27;;;6.47;;
7745;SDS011;3917;42.748;23.278;2022-08-25T07:58:00;19.02;;;6.88;;
7745;SDS011;3917;42.748;23.278;2022-08-25T08:00:30;20.70;;;6.30;;
7745;SDS011;3917;42.748;23.278;2022-08-25T08:02:58;21.73;;;6.38;;
7745;SDS011;3917;42.748;23.278;2022-08-25T08:05:26;30.52;;;5.90;;
7745;SDS011;3917;42.748;23.278;2022-08-25T08:07:55;23.83;;;6.50;;
7745;SDS011;3917;42.748;23.278;2022-08-25T08:10:22;27.25;;;6.55;;
7745;SDS011;3917;42.748;23.278;2022-08-25T08:12:50;23.92;;;6.63;;
7745;SDS011;3917;42.748;23.278;2022-08-25T08:15:17;23.00;;;5.75;;
7745;SDS011;3917;42.748;23.278;2022-08-25T08:17:45;22.67;;;6.13;;
7745;SDS011;3917;42.748;23.278;2022-08-25T08:20:12;22.48;;;6.65;;
7745;SDS011;3917;42.748;23.278;2022-08-25T08:22:41;20.20;;;6.90;;
7745;SDS011;3917;42.748;23.278;2022-08-25T08:25:10;28.55;;;6.57;;
7745;SDS011;3917;42.748;23.278;2022-08-25T08:27:37;27.00;;;6.38;;
7745;SDS011;3917;42.748;23.278;2022-08-25T08:30:05;31.58;;;6.30;;
7745;SDS011;3917;42.748;23.278;2022-08-25T08:32:33;22.13;;;6.10;;
7745;SDS011;3917;42.748;23.278;2022-08-25T08:35:00;22.98;;;6.15;;
7745;SDS011;3917;42.748;23.278;2022-08-25T08:37:29;27.40;;;6.35;;
7745;SDS011;3917;42.748;23.278;2022-08-25T08:39:56;29.70;;;6.50;;
7745;SDS011;3917;42.748;23.278;2022-08-25T08:42:36;38.63;;;6.88;;
7745;SDS011;3917;42.748;23.278;2022-08-25T08:48:15;46.53;;;7.78;;
7745;SDS011;3917;42.748;23.278;2022-08-25T08:51:06;39.83;;;6.88;;
7745;SDS011;3917;42.748;23.278;2022-08-25T08:53:43;29.27;;;6.80;;
7745;SDS011;3917;42.748;23.278;2022-08-25T08:56:16;29.23;;;6.60;;
7745;SDS011;3917;42.748;23.278;2022-08-25T08:58:50;21.58;;;6.18;;
7745;SDS011;3917;42.748;23.278;2022-08-25T09:01:23;24.92;;;5.78;;
7745;SDS011;3917;42.748;23.278;2022-08-25T09:03:55;31.02;;;6.03;;
7745;SDS011;3917;42.748;23.278;2022-08-25T09:06:29;25.00;;;6.30;;
7745;SDS011;3917;42.748;23.278;2022-08-25T09:09:02;26.93;;;5.53;;
7745;SDS011;3917;42.748;23.278;2022-08-25T09:11:45;32.25;;;7.13;;
7745;SDS011;3917;42.748;23.278;2022-08-25T09:14:25;29.33;;;6.57;;
7745;SDS011;3917;42.748;23.278;2022-08-25T09:17:05;30.90;;;6.05;;
7745;SDS011;3917;42.748;23.278;2022-08-25T09:19:43;34.75;;;5.28;;
7745;SDS011;3917;42.748;23.278;2022-08-25T09:22:33;43.17;;;5.68;;
7745;SDS011;3917;42.748;23.278;2022-08-25T09:25:10;39.17;;;5.80;;
7745;SDS011;3917;42.748;23.278;2022-08-25T09:27:47;31.08;;;5.25;;
7745;SDS011;3917;42.748;23.278;2022-08-25T09:30:38;20.27;;;4.97;;
7745;SDS011;3917;42.748;23.278;2022-08-25T09:33:14;34.55;;;5.55;;
7745;SDS011;3917;42.748;23.278;2022-08-25T09:35:45;34.20;;;5.40;;
7745;SDS011;3917;42.748;23.278;2022-08-25T09:38:13;25.27;;;4.45;;
7745;SDS011;3917;42.748;23.278;2022-08-25T09:40:40;43.95;;;5.63;;
7745;SDS011;3917;42.748;23.278;2022-08-25T09:43:17;32.15;;;5.88;;
7745;SDS011;3917;42.748;23.278;2022-08-25T09:45:49;37.10;;;6.20;;
7745;SDS011;3917;42.748;23.278;2022-08-25T09:48:26;27.10;;;5.10;;
7745;SDS011;3917;42.748;23.278;2022-08-25T09:50:56;28.45;;;5.28;;
7745;SDS011;3917;42.748;23.278;2022-08-25T09:53:26;45.58;;;5.50;;
7745;SDS011;3917;42.748;23.278;2022-08-25T09:55:56;41.28;;;5.40;;
7745;SDS011;3917;42.748;23.278;2022-08-25T09:58:28;30.80;;;6.45;;
7745;SDS011;3917;42.748;23.278;2022-08-25T10:01:02;39.00;;;5.63;;
7745;SDS011;3917;42.748;23.278;2022-08-25T10:03:49;32.90;;;5.80;;
7745;SDS011;3917;42.748;23.278;2022-08-25T10:06:20;45.38;;;6.22;;
7745;SDS011;3917;42.748;23.278;2022-08-25T10:08:52;42.10;;;7.05;;
7745;SDS011;3917;42.748;23.278;2022-08-25T10:11:30;34.08;;;5.47;;
7745;SDS011;3917;42.748;23.278;2022-08-25T10:14:00;34.47;;;6.38;;
7745;SDS011;3917;42.748;23.278;2022-08-25T10:16:31;34.58;;;4.95;;
7745;SDS011;3917;42.748;23.278;2022-08-25T10:18:59;41.90;;;5.50;;
7745;SDS011;3917;42.748;23.278;2022-08-25T10:21:28;44.35;;;5.53;;
7745;SDS011;3917;42.748;23.278;2022-08-25T10:23:55;44.85;;;6.15;;
7745;SDS011;3917;42.748;23.278;2022-08-25T10:26:26;24.25;;;4.30;;
7745;SDS011;3917;42.748;23.278;2022-08-25T10:29:02;22.25;;;3.90;;
7745;SDS011;3917;42.748;23.278;2022-08-25T10:31:45;26.05;;;3.28;;
7745;SDS011;3917;42.748;23.278;2022-08-25T10:36:52;27.25;;;4.93;;
7745;SDS011;3917;42.748;23.278;2022-08-25T10:39:29;28.55;;;3.55;;
7745;SDS011;3917;42.748;23.278;2022-08-25T10:42:08;36.00;;;4.32;;
7745;SDS011;3917;42.748;23.278;2022-08-25T10:44:48;38.58;;;4.00;;
7745;SDS011;3917;42.748;23.278;2022-08-25T10:47:53;21.42;;;3.95;;
7745;SDS011;3917;42.748;23.278;2022-08-25T10:50:34;20.50;;;3.30;;
7745;SDS011;3917;42.748;23.278;2022-08-25T10:53:10;22.48;;;4.05;;
7745;SDS011;3917;42.748;23.278;2022-08-25T10:55:46;30.45;;;3.42;;
7745;SDS011;3917;42.748;23.278;2022-08-25T10:58:22;22.25;;;3.40;;
7745;SDS011;3917;42.748;23.278;2022-08-25T11:01:01;18.65;;;3.72;;
7745;SDS011;3917;42.748;23.278;2022-08-25T11:03:40;29.90;;;4.15;;
7745;SDS011;3917;42.748;23.278;2022-08-25T11:06:16;29.05;;;3.60;;
7745;SDS011;3917;42.748;23.278;2022-08-25T11:08:46;47.83;;;5.90;;
7745;SDS011;3917;42.748;23.278;2022-08-25T11:11:19;23.75;;;4.03;;
7745;SDS011;3917;42.748;23.278;2022-08-25T11:13:52;16.35;;;3.63;;
7745;SDS011;3917;42.748;23.278;2022-08-25T11:16:25;47.05;;;6.15;;
7745;SDS011;3917;42.748;23.278;2022-08-25T11:19:04;32.13;;;4.25;;
7745;SDS011;3917;42.748;23.278;2022-08-25T11:21:42;19.23;;;3.75;;
7745;SDS011;3917;42.748;23.278;2022-08-25T11:24:22;24.10;;;4.53;;
7745;SDS011;3917;42.748;23.278;2022-08-25T11:26:58;28.73;;;4.13;;
7745;SDS011;3917;42.748;23.278;2022-08-25T11:29:27;15.90;;;3.08;;
7745;SDS011;3917;42.748;23.278;2022-08-25T11:31:58;24.83;;;4.28;;
7745;SDS011;3917;42.748;23.278;2022-08-25T11:34:28;18.38;;;3.58;;
7745;SDS011;3917;42.748;23.278;2022-08-25T11:36:58;35.47;;;4.28;;
7745;SDS011;3917;42.748;23.278;2022-08-25T11:42:50;28.83;;;4.15;;
7745;SDS011;3917;42.748;23.278;2022-08-25T11:45:36;22.33;;;3.72;;
7745;SDS011;3917;42.748;23.278;2022-08-25T11:48:17;22.48;;;4.55;;
7745;SDS011;3917;42.748;23.278;2022-08-25T11:50:58;25.80;;;4.55;;
7745;SDS011;3917;42.748;23.278;2022-08-25T11:53:28;28.63;;;4.90;;
7745;SDS011;3917;42.748;23.278;2022-08-25T11:55:57;15.30;;;3.72;;
7745;SDS011;3917;42.748;23.278;2022-08-25T11:58:30;23.60;;;4.25;;
7745;SDS011;3917;42.748;23.278;2022-08-25T12:01:03;38.42;;;5.63;;
7745;SDS011;3917;42.748;23.278;2022-08-25T12:12:56;23.75;;;4.30;;
7745;SDS011;3917;42.748;23.278;2022-08-25T12:15:31;38.38;;;4.72;;
7745;SDS011;3917;42.748;23.278;2022-08-25T12:24:09;29.20;;;4.72;;
7745;SDS011;3917;42.748;23.278;2022-08-25T12:26:40;23.98;;;3.88;;
7745;SDS011;3917;42.748;23.278;2022-08-25T12:29:14;22.77;;;3.97;;
7745;SDS011;3917;42.748;23.278;2022-08-25T12:31:51;24.38;;;3.17;;
7745;SDS011;3917;42.748;23.278;2022-08-25T12:34:38;22.70;;;3.25;;
7745;SDS011;3917;42.748;23.278;2022-08-25T12:37:18;17.90;;;3.13;;
7745;SDS011;3917;42.748;23.278;2022-08-25T12:39:53;24.17;;;3.75;;
7745;SDS011;3917;42.748;23.278;2022-08-25T12:42:29;16.55;;;2.80;;
7745;SDS011;3917;42.748;23.278;2022-08-25T12:45:10;30.42;;;3.72;;
7745;SDS011;3917;42.748;23.278;2022-08-25T12:47:57;25.95;;;3.83;;
7745;SDS011;3917;42.748;23.278;2022-08-25T12:51:01;24.20;;;3.80;;
7745;SDS011;3917;42.748;23.278;2022-08-25T12:53:31;29.48;;;4.38;;
7745;SDS011;3917;42.748;23.278;2022-08-25T12:56:02;19.88;;;3.75;;
7745;SDS011;3917;42.748;23.278;2022-08-25T12:58:34;17.55;;;3.95;;
7745;SDS011;3917;42.748;23.278;2022-08-25T13:01:16;17.85;;;3.42;;
7745;SDS011;3917;42.748;23.278;2022-08-25T13:04:17;24.25;;;2.72;;
7745;SDS011;3917;42.748;23.278;2022-08-25T13:07:00;25.90;;;3.72;;
7745;SDS011;3917;42.748;23.278;2022-08-25T13:09:55;25.98;;;4.25;;
7745;SDS011;3917;42.748;23.278;2022-08-25T13:12:39;28.27;;;4.22;;
7745;SDS011;3917;42.748;23.278;2022-08-25T13:15:14;18.40;;;3.97;;
7745;SDS011;3917;42.748;23.278;2022-08-25T13:18:11;20.83;;;4.65;;
7745;SDS011;3917;42.748;23.278;2022-08-25T13:20:39;27.65;;;4.43;;
7745;SDS011;3917;42.748;23.278;2022-08-25T13:23:07;22.83;;;4.70;;
7745;SDS011;3917;42.748;23.278;2022-08-25T13:25:34;22.48;;;3.28;;
7745;SDS011;3917;42.748;23.278;2022-08-25T13:28:16;27.73;;;3.53;;
7745;SDS011;3917;42.748;23.278;2022-08-25T13:31:03;18.33;;;3.47;;
7745;SDS011;3917;42.748;23.278;2022-08-25T13:33:33;25.67;;;4.18;;
7745;SDS011;3917;42.748;23.278;2022-08-25T13:36:01;22.13;;;3.17;;
7745;SDS011;3917;42.748;23.278;2022-08-25T13:41:18;28.58;;;3.15;;
7745;SDS011;3917;42.748;23.278;2022-08-25T13:43:48;25.40;;;3.33;;
7745;SDS011;3917;42.748;23.278;2022-08-25T13:46:20;14.38;;;3.30;;
7745;SDS011;3917;42.748;23.278;2022-08-25T13:48:48;21.25;;;3.28;;
7745;SDS011;3917;42.748;23.278;2022-08-25T13:51:17;23.70;;;3.40;;
7745;SDS011;3917;42.748;23.278;2022-08-25T13:53:48;22.02;;;3.45;;
7745;SDS011;3917;42.748;23.278;2022-08-25T13:56:22;19.65;;;3.42;;
7745;SDS011;3917;42.748;23.278;2022-08-25T13:58:50;22.85;;;3.47;;
7745;SDS011;3917;42.748;23.278;2022-08-25T14:01:18;32.40;;;4.00;;
7745;SDS011;3917;42.748;23.278;2022-08-25T14:03:50;26.92;;;3.38;;
7745;SDS011;3917;42.748;23.278;2022-08-25T14:06:19;19.55;;;3.63;;
7745;SDS011;3917;42.748;23.278;2022-08-25T14:08:48;26.02;;;3.42;;
7745;SDS011;3917;42.748;23.278;2022-08-25T14:11:32;34.93;;;4.23;;
7745;SDS011;3917;42.748;23.278;2022-08-25T14:14:07;31.02;;;3.97;;
7745;SDS011;3917;42.748;23.278;2022-08-25T14:16:39;15.05;;;3.03;;
7745;SDS011;3917;42.748;23.278;2022-08-25T14:19:12;18.23;;;4.10;;
7745;SDS011;3917;42.748;23.278;2022-08-25T14:21:41;12.52;;;3.53;;
7745;SDS011;3917;42.748;23.278;2022-08-25T14:24:08;27.83;;;3.50;;
7745;SDS011;3917;42.748;23.278;2022-08-25T14:26:39;27.05;;;4.43;;
7745;SDS011;3917;42.748;23.278;2022-08-25T14:29:05;22.70;;;4.10;;
7745;SDS011;3917;42.748;23.278;2022-08-25T14:31:33;21.25;;;3.95;;
7745;SDS011;3917;42.748;23.278;2022-08-25T14:34:05;18.70;;;3.17;;
7745;SDS011;3917;42.748;23.278;2022-08-25T14:36:35;21.77;;;3.45;;
7745;SDS011;3917;42.748;23.278;2022-08-25T14:39:02;20.83;;;2.90;;
7745;SDS011;3917;42.748;23.278;2022-08-25T14:41:30;17.90;;;2.90;;
7745;SDS011;3917;42.748;23.278;2022-08-25T14:43:59;20.33;;;4.05;;
7745;SDS011;3917;42.748;23.278;2022-08-25T14:46:27;15.55;;;2.95;;
7745;SDS011;3917;42.748;23.278;2022-08-25T14:48:57;24.75;;;3.53;;
7745;SDS011;3917;42.748;23.278;2022-08-25T14:51:27;18.17;;;4.00;;
7745;SDS011;3917;42.748;23.278;2022-08-25T14:53:57;19.45;;;3.30;;
7745;SDS011;3917;42.748;23.278;2022-08-25T14:56:26;14.68;;;2.90;;
7745;SDS011;3917;42.748;23.278;2022-08-25T14:58:53;31.30;;;3.10;;
7745;SDS011;3917;42.748;23.278;2022-08-25T15:01:21;18.33;;;3.80;;
7745;SDS011;3917;42.748;23.278;2022-08-25T15:03:49;23.17;;;3.55;;
7745;SDS011;3917;42.748;23.278;2022-08-25T15:06:21;27.73;;;3.72;;
7745;SDS011;3917;42.748;23.278;2022-08-25T15:08:49;20.75;;;3.88;;
7745;SDS011;3917;42.748;23.278;2022-08-25T15:11:35;23.80;;;3.47;;
7745;SDS011;3917;42.748;23.278;2022-08-25T15:14:04;21.02;;;2.97;;
7745;SDS011;3917;42.748;23.278;2022-08-25T15:16:31;22.50;;;3.92;;
7745;SDS011;3917;42.748;23.278;2022-08-25T15:19:02;19.27;;;3.85;;
7745;SDS011;3917;42.748;23.278;2022-08-25T15:21:31;21.35;;;4.30;;
7745;SDS011;3917;42.748;23.278;2022-08-25T15:23:59;30.75;;;4.75;;
7745;SDS011;3917;42.748;23.278;2022-08-25T15:26:27;17.20;;;3.53;;
7745;SDS011;3917;42.748;23.278;2022-08-25T15:28:55;23.05;;;3.83;;
7745;SDS011;3917;42.748;23.278;2022-08-25T15:31:22;23.23;;;3.65;;
7745;SDS011;3917;42.748;23.278;2022-08-25T15:33:49;27.52;;;3.92;;
7745;SDS011;3917;42.748;23.278;2022-08-25T15:36:23;24.15;;;4.25;;
7745;SDS011;3917;42.748;23.278;2022-08-25T15:38:52;29.13;;;3.97;;
7745;SDS011;3917;42.748;23.278;2022-08-25T15:41:26;39.90;;;4.78;;